createdAt,value
2018-11-29T00:02:09.290Z,22.83
2018-11-29T00:04:36.815Z,21.90
2018-11-29T00:07:04.765Z,23.43
2018-11-29T00:09:38.312Z,22.27
2018-11-29T00:12:06.810Z,20.47
2018-11-29T00:14:35.356Z,22.33
2018-11-29T00:17:02.850Z,23.00
2018-11-29T00:19:30.448Z,23.27
2018-11-29T00:21:57.962Z,21.27
2018-11-29T00:24:25.420Z,22.30
2018-11-29T00:26:52.876Z,21.37
2018-11-29T00:29:20.520Z,21.13
2018-11-29T00:31:48.238Z,20.87
2018-11-29T00:34:15.692Z,22.93
2018-11-29T00:36:43.301Z,22.27
2018-11-29T00:39:10.696Z,21.87
2018-11-29T00:41:38.139Z,21.80
2018-11-29T00:44:05.768Z,23.20
2018-11-29T00:46:33.208Z,23.47
2018-11-29T00:49:00.617Z,22.93
2018-11-29T00:51:28.032Z,22.37
2018-11-29T00:53:55.752Z,23.93
2018-11-29T00:56:23.144Z,23.60
2018-11-29T00:58:50.534Z,23.40
2018-11-29T01:01:18.108Z,22.70
2018-11-29T01:03:45.500Z,22.20
2018-11-29T01:06:12.909Z,22.33
2018-11-29T01:08:40.348Z,20.73
2018-11-29T01:11:07.868Z,22.37
2018-11-29T01:13:35.284Z,22.20
2018-11-29T01:16:02.945Z,23.33
2018-11-29T01:18:30.490Z,22.07
2018-11-29T01:20:57.886Z,23.63
2018-11-29T01:23:25.333Z,23.03
2018-11-29T01:25:52.809Z,21.37
2018-11-29T01:28:20.321Z,22.10
2018-11-29T01:30:47.736Z,20.70
2018-11-29T01:33:15.221Z,22.77
2018-11-29T01:35:42.666Z,23.70
2018-11-29T01:38:10.096Z,21.87
2018-11-29T01:40:37.594Z,23.17
2018-11-29T01:43:05.553Z,22.73
2018-11-29T01:45:33.148Z,24.20
2018-11-29T01:48:00.556Z,23.30
2018-11-29T01:50:28.030Z,23.17
2018-11-29T01:52:55.492Z,27.10
2018-11-29T01:55:22.942Z,24.27
2018-11-29T01:57:50.874Z,23.40
2018-11-29T02:00:18.547Z,24.70
2018-11-29T02:02:50.124Z,24.90
2018-11-29T02:05:17.755Z,24.50
2018-11-29T02:07:45.261Z,22.73
2018-11-29T02:10:19.407Z,25.43
2018-11-29T02:12:46.878Z,23.20
2018-11-29T02:15:14.425Z,21.53
2018-11-29T02:17:41.956Z,24.50
2018-11-29T02:20:12.955Z,24.50
2018-11-29T02:22:40.409Z,24.97
2018-11-29T02:25:07.883Z,25.60
2018-11-29T02:27:36.243Z,20.80
2018-11-29T02:30:05.976Z,24.43
2018-11-29T02:32:33.405Z,24.30
2018-11-29T02:35:00.942Z,24.70
2018-11-29T02:37:28.371Z,22.70
2018-11-29T02:39:55.810Z,24.73
2018-11-29T02:42:23.642Z,23.77
2018-11-29T02:44:51.064Z,21.73
2018-11-29T02:47:18.483Z,25.00
2018-11-29T02:49:45.946Z,23.87
2018-11-29T02:52:13.354Z,24.40
2018-11-29T02:54:40.806Z,23.00
2018-11-29T02:57:08.260Z,25.10
2018-11-29T02:59:35.697Z,24.20
2018-11-29T03:02:03.189Z,22.50
2018-11-29T03:04:30.621Z,23.57
2018-11-29T03:06:58.039Z,23.70
2018-11-29T03:09:25.452Z,22.23
2018-11-29T03:11:53.437Z,21.27
2018-11-29T03:14:20.945Z,22.77
2018-11-29T03:16:48.502Z,21.80
2018-11-29T03:19:16.010Z,23.17
2018-11-29T03:21:43.428Z,22.87
2018-11-29T03:24:10.905Z,22.10
2018-11-29T03:26:38.798Z,23.17
2018-11-29T03:29:06.739Z,23.20
2018-11-29T03:31:34.156Z,24.13
2018-11-29T03:34:01.718Z,21.47
2018-11-29T03:36:29.192Z,21.63
2018-11-29T03:38:56.633Z,23.97
2018-11-29T03:41:24.064Z,22.57
2018-11-29T03:43:51.508Z,22.73
2018-11-29T03:46:18.966Z,22.63
2018-11-29T03:48:46.406Z,24.30
2018-11-29T03:51:13.939Z,22.97
2018-11-29T03:53:41.328Z,21.90
2018-11-29T03:56:08.900Z,24.00
2018-11-29T03:58:36.352Z,22.90
2018-11-29T04:01:03.971Z,23.10
2018-11-29T04:03:31.442Z,22.90
2018-11-29T04:05:58.823Z,22.37
2018-11-29T04:08:26.266Z,22.87
2018-11-29T04:10:53.754Z,21.43
2018-11-29T04:13:21.295Z,21.30
2018-11-29T04:15:48.725Z,20.77
2018-11-29T04:18:16.272Z,20.97
2018-11-29T04:20:44.049Z,21.70
2018-11-29T04:23:11.522Z,19.70
2018-11-29T04:25:38.972Z,21.10
2018-11-29T04:28:06.448Z,21.70
2018-11-29T04:30:33.850Z,20.53
2018-11-29T04:33:01.359Z,20.70
2018-11-29T04:35:28.731Z,20.87
2018-11-29T04:37:56.196Z,22.13
2018-11-29T04:40:23.792Z,20.37
2018-11-29T04:42:51.244Z,19.90
2018-11-29T04:45:18.731Z,18.97
2018-11-29T04:47:47.010Z,21.83
2018-11-29T04:50:15.788Z,20.40
2018-11-29T04:52:49.955Z,20.90
2018-11-29T04:55:17.407Z,20.47
2018-11-29T04:57:44.911Z,20.30
2018-11-29T05:00:14.468Z,22.03
2018-11-29T05:02:41.970Z,24.70
2018-11-29T05:05:10.295Z,21.57
2018-11-29T05:07:37.838Z,21.77
2018-11-29T05:10:07.209Z,19.77
2018-11-29T05:12:34.790Z,19.53
2018-11-29T05:15:02.305Z,22.07
2018-11-29T05:17:29.856Z,18.80
2018-11-29T05:19:57.248Z,20.83
2018-11-29T05:22:24.684Z,19.67
2018-11-29T05:24:52.091Z,20.10
2018-11-29T05:27:19.515Z,17.77
2018-11-29T05:29:46.959Z,21.40
2018-11-29T05:32:14.446Z,20.43
2018-11-29T05:34:41.993Z,20.17
2018-11-29T05:37:09.465Z,20.30
2018-11-29T05:39:36.815Z,19.60
2018-11-29T05:42:04.277Z,21.53
2018-11-29T05:44:31.855Z,21.97
2018-11-29T05:46:59.264Z,19.63
2018-11-29T05:49:26.646Z,19.30
2018-11-29T05:51:54.153Z,22.90
2018-11-29T05:54:21.759Z,20.00
2018-11-29T05:56:49.182Z,20.13
2018-11-29T05:59:16.637Z,20.87
2018-11-29T06:01:44.899Z,21.10
2018-11-29T06:04:12.585Z,20.80
2018-11-29T06:06:40.491Z,20.00
2018-11-29T06:09:09.785Z,23.27
2018-11-29T06:11:38.583Z,21.70
2018-11-29T06:14:07.288Z,22.33
2018-11-29T06:16:35.811Z,19.70
2018-11-29T06:19:03.404Z,22.50
2018-11-29T06:21:30.882Z,23.50
2018-11-29T06:23:58.304Z,21.23
2018-11-29T06:26:25.875Z,20.77
2018-11-29T06:28:53.512Z,23.60
2018-11-29T06:31:21.080Z,20.67
2018-11-29T06:33:48.616Z,22.37
2018-11-29T06:36:16.190Z,22.07
2018-11-29T06:38:43.694Z,23.00
2018-11-29T06:41:11.120Z,22.13
2018-11-29T06:43:38.700Z,20.90
2018-11-29T06:46:06.400Z,21.40
2018-11-29T06:48:33.793Z,23.57
2018-11-29T06:51:01.232Z,19.73
2018-11-29T06:53:34.231Z,21.77
2018-11-29T06:56:01.806Z,21.83
2018-11-29T06:58:29.237Z,22.27
2018-11-29T07:01:00.010Z,22.07
2018-11-29T07:03:28.923Z,21.93
2018-11-29T07:05:55.137Z,24.93
2018-11-29T07:08:22.551Z,20.80
2018-11-29T07:10:50.199Z,19.43
2018-11-29T07:13:17.667Z,21.73
2018-11-29T07:15:45.249Z,22.47
2018-11-29T07:18:12.713Z,23.60
2018-11-29T07:20:40.180Z,21.27
2018-11-29T07:23:07.757Z,20.07
2018-11-29T07:25:35.505Z,24.20
2018-11-29T07:28:03.048Z,22.67
2018-11-29T07:30:30.558Z,20.63
2018-11-29T07:32:58.153Z,22.20
2018-11-29T07:35:25.658Z,23.10
2018-11-29T07:37:53.306Z,20.83
2018-11-29T07:40:20.849Z,22.17
2018-11-29T07:42:50.191Z,22.33
2018-11-29T07:45:18.797Z,22.53
2018-11-29T07:47:46.631Z,22.70
2018-11-29T07:50:18.193Z,21.03
2018-11-29T07:52:45.672Z,21.53
2018-11-29T07:55:16.474Z,21.23
2018-11-29T07:57:44.484Z,22.50
2018-11-29T08:00:13.376Z,25.40
2018-11-29T08:02:40.966Z,21.10
2018-11-29T08:05:10.482Z,22.50
2018-11-29T08:07:38.516Z,22.37
2018-11-29T08:10:08.640Z,24.33
2018-11-29T08:12:36.142Z,22.07
2018-11-29T08:15:03.797Z,22.30
2018-11-29T08:17:31.345Z,21.90
2018-11-29T08:19:58.729Z,22.00
2018-11-29T08:22:26.197Z,21.60
2018-11-29T08:24:53.739Z,23.20
2018-11-29T08:27:21.173Z,23.30
2018-11-29T08:29:48.847Z,21.93
2018-11-29T08:32:16.365Z,22.57
2018-11-29T08:34:43.827Z,20.50
2018-11-29T08:37:11.268Z,23.00
2018-11-29T08:39:38.777Z,22.20
2018-11-29T08:42:06.353Z,23.87
2018-11-29T08:44:33.859Z,21.67
2018-11-29T08:47:01.359Z,20.67
2018-11-29T08:49:28.734Z,20.77
2018-11-29T08:51:56.175Z,21.50
2018-11-29T08:54:23.690Z,19.87
2018-11-29T08:56:51.142Z,21.73
2018-11-29T08:59:18.627Z,21.30
2018-11-29T09:01:46.108Z,23.57
2018-11-29T09:04:13.652Z,24.57
2018-11-29T09:06:41.285Z,21.73
2018-11-29T09:09:08.787Z,21.47
2018-11-29T09:11:36.355Z,21.40
2018-11-29T09:14:04.194Z,24.30
2018-11-29T09:16:31.862Z,22.00
2018-11-29T09:18:59.266Z,22.00
2018-11-29T09:21:26.974Z,24.10
2018-11-29T09:23:54.488Z,22.37
2018-11-29T09:26:22.039Z,29.20
2018-11-29T09:28:49.623Z,21.47
2018-11-29T09:31:17.199Z,24.60
2018-11-29T09:33:44.673Z,22.23
2018-11-29T09:36:12.133Z,20.50
2018-11-29T09:38:39.651Z,22.90
2018-11-29T09:41:07.105Z,22.60
2018-11-29T09:43:34.569Z,20.57
2018-11-29T09:46:02.167Z,19.77
2018-11-29T09:48:29.739Z,22.63
2018-11-29T09:50:57.423Z,22.10
2018-11-29T09:53:24.903Z,19.50
2018-11-29T09:55:52.747Z,19.90
2018-11-29T09:58:20.233Z,22.23
2018-11-29T10:00:47.851Z,22.60
2018-11-29T10:03:15.897Z,21.77
2018-11-29T10:05:46.096Z,19.80
2018-11-29T10:08:16.790Z,21.40
2018-11-29T10:10:44.398Z,19.60
2018-11-29T10:13:11.958Z,22.90
2018-11-29T10:15:39.544Z,21.20
2018-11-29T10:18:08.015Z,20.13
2018-11-29T10:20:35.456Z,20.67
2018-11-29T10:23:02.942Z,21.00
2018-11-29T10:25:30.355Z,21.80
2018-11-29T10:28:01.111Z,19.60
2018-11-29T10:31:02.074Z,19.27
2018-11-29T10:33:29.619Z,22.13
2018-11-29T10:35:59.204Z,21.27
2018-11-29T10:38:25.223Z,22.20
2018-11-29T10:40:53.038Z,19.40
2018-11-29T10:43:20.687Z,19.77
2018-11-29T10:45:48.124Z,19.00
2018-11-29T10:48:17.255Z,19.97
2018-11-29T10:50:44.689Z,22.03
2018-11-29T10:53:12.148Z,21.10
2018-11-29T10:55:39.606Z,21.23
2018-11-29T10:58:07.162Z,21.07
2018-11-29T11:01:41.208Z,21.30
2018-11-29T11:04:08.724Z,20.37
2018-11-29T11:06:36.220Z,21.87
2018-11-29T11:09:06.828Z,20.00
2018-11-29T11:11:34.320Z,19.43
2018-11-29T11:14:01.760Z,22.50
2018-11-29T11:16:29.311Z,20.83
2018-11-29T11:18:56.798Z,19.67
2018-11-29T11:21:24.257Z,20.47
2018-11-29T11:23:51.900Z,21.30
2018-11-29T11:26:19.437Z,21.33
2018-11-29T11:28:47.006Z,19.87
2018-11-29T11:31:14.456Z,20.70
2018-11-29T11:33:42.052Z,20.23
2018-11-29T11:36:09.584Z,20.97
2018-11-29T11:38:37.098Z,19.70
2018-11-29T11:41:04.788Z,19.03
2018-11-29T11:43:32.396Z,20.90
2018-11-29T11:45:59.984Z,18.60
2018-11-29T11:48:27.480Z,19.97
2018-11-29T11:50:54.907Z,20.60
2018-11-29T11:53:22.366Z,19.20
2018-11-29T11:55:53.535Z,20.47
2018-11-29T11:58:17.300Z,21.50
2018-11-29T12:00:44.914Z,20.90
2018-11-29T12:03:13.878Z,19.20
2018-11-29T12:05:41.366Z,20.23
2018-11-29T12:08:08.929Z,19.40
2018-11-29T12:10:37.035Z,20.67
2018-11-29T12:13:05.139Z,20.40
2018-11-29T12:15:32.675Z,20.87
2018-11-29T12:18:00.241Z,19.03
2018-11-29T12:20:27.692Z,20.57
2018-11-29T12:22:55.202Z,21.10
2018-11-29T12:25:23.146Z,21.73
2018-11-29T12:27:51.491Z,19.00
2018-11-29T12:30:21.267Z,19.43
2018-11-29T12:32:48.881Z,17.97
2018-11-29T12:35:16.411Z,18.67
2018-11-29T12:37:44.021Z,18.90
2018-11-29T12:40:12.579Z,20.50
2018-11-29T12:42:40.161Z,18.33
2018-11-29T12:45:09.918Z,20.30
2018-11-29T12:47:37.514Z,18.20
2018-11-29T12:50:08.692Z,17.93
2018-11-29T12:52:36.136Z,18.43
2018-11-29T12:55:03.958Z,18.10
2018-11-29T12:57:31.428Z,19.80
2018-11-29T12:59:58.913Z,18.30
2018-11-29T13:02:26.456Z,17.27
2018-11-29T13:04:54.083Z,17.87
2018-11-29T13:07:21.562Z,18.57
2018-11-29T13:09:48.984Z,18.30
2018-11-29T13:12:16.428Z,18.60
2018-11-29T13:14:43.960Z,19.93
2018-11-29T13:17:11.450Z,17.40
2018-11-29T13:19:39.074Z,18.23
2018-11-29T13:22:06.609Z,19.83
2018-11-29T13:24:34.090Z,17.70
2018-11-29T13:27:01.576Z,20.45
2018-11-29T13:29:29.154Z,18.50
2018-11-29T13:31:56.778Z,18.53
2018-11-29T13:34:24.266Z,18.67
2018-11-29T13:36:51.826Z,18.00
2018-11-29T13:39:19.338Z,18.63
2018-11-29T13:41:46.836Z,21.00
2018-11-29T13:44:14.340Z,18.63
2018-11-29T13:46:41.824Z,16.33
2018-11-29T13:49:09.321Z,16.87
2018-11-29T13:51:36.755Z,17.73
2018-11-29T13:54:04.205Z,18.60
2018-11-29T13:56:31.857Z,19.50
2018-11-29T13:58:59.353Z,18.93
2018-11-29T14:01:26.895Z,18.57
2018-11-29T14:03:54.338Z,18.37
2018-11-29T14:06:21.817Z,18.90
2018-11-29T14:08:49.446Z,16.50
2018-11-29T14:11:16.907Z,18.70
2018-11-29T14:13:44.507Z,18.43
2018-11-29T14:16:12.056Z,17.27
2018-11-29T14:18:39.899Z,17.40
2018-11-29T14:21:07.585Z,17.43
2018-11-29T14:23:35.067Z,17.83
2018-11-29T14:26:02.557Z,17.23
2018-11-29T14:28:30.041Z,18.10
2018-11-29T14:30:57.600Z,16.37
2018-11-29T14:33:25.223Z,19.00
2018-11-29T14:35:52.827Z,17.70
2018-11-29T14:38:20.273Z,19.37
2018-11-29T14:40:47.783Z,17.00
2018-11-29T14:43:15.217Z,17.97
2018-11-29T14:45:42.670Z,17.90
2018-11-29T14:48:10.308Z,17.07
2018-11-29T14:50:41.652Z,17.67
2018-11-29T14:53:09.701Z,16.87
2018-11-29T14:55:38.219Z,16.07
2018-11-29T14:58:07.029Z,18.20
2018-11-29T15:00:38.116Z,18.37
2018-11-29T15:03:10.157Z,16.97
2018-11-29T15:05:37.743Z,16.73
2018-11-29T15:08:06.523Z,17.60
2018-11-29T15:10:34.133Z,17.20
2018-11-29T15:13:01.581Z,17.97
2018-11-29T15:15:29.067Z,18.03
2018-11-29T15:17:56.477Z,17.20
2018-11-29T15:20:28.448Z,16.90
2018-11-29T15:22:55.969Z,17.73
2018-11-29T15:25:23.414Z,16.87
2018-11-29T15:27:51.020Z,16.83
2018-11-29T15:30:20.494Z,16.73
2018-11-29T15:32:47.219Z,16.70
2018-11-29T15:35:14.930Z,17.07
2018-11-29T15:37:42.399Z,17.27
2018-11-29T15:40:13.166Z,16.50
2018-11-29T15:42:40.765Z,17.10
2018-11-29T15:45:13.045Z,22.77
2018-11-29T15:47:40.919Z,18.47
2018-11-29T15:50:10.039Z,19.43
2018-11-29T15:52:37.545Z,19.87
2018-11-29T15:55:07.142Z,18.30
2018-11-29T15:57:35.117Z,17.93
2018-11-29T16:00:02.256Z,17.33
2018-11-29T16:02:29.760Z,16.60
2018-11-29T16:04:57.215Z,16.70
2018-11-29T16:07:24.640Z,16.30
2018-11-29T16:09:52.132Z,15.40
2018-11-29T16:12:19.567Z,17.17
2018-11-29T16:14:47.839Z,15.83
2018-11-29T16:17:15.778Z,16.73
2018-11-29T16:19:43.290Z,16.40
2018-11-29T16:22:10.856Z,17.23
2018-11-29T16:24:38.336Z,14.77
2018-11-29T16:27:06.280Z,16.80
2018-11-29T16:29:33.848Z,17.63
2018-11-29T16:32:01.516Z,15.10
2018-11-29T16:34:28.936Z,15.33
2018-11-29T16:36:56.423Z,15.43
2018-11-29T16:39:24.014Z,14.60
2018-11-29T16:41:51.521Z,15.90
2018-11-29T16:44:18.961Z,15.90
2018-11-29T16:46:46.682Z,15.33
2018-11-29T16:49:14.100Z,14.83
2018-11-29T16:51:41.541Z,16.80
2018-11-29T16:54:08.985Z,15.10
2018-11-29T16:56:36.474Z,13.93
2018-11-29T16:59:04.233Z,15.13
2018-11-29T17:01:31.703Z,16.57
2018-11-29T17:03:59.200Z,15.37
2018-11-29T17:06:26.855Z,13.60
2018-11-29T17:08:54.363Z,15.67
2018-11-29T17:11:21.795Z,15.87
2018-11-29T17:13:49.273Z,14.30
2018-11-29T17:16:16.857Z,14.33
2018-11-29T17:18:44.393Z,13.23
2018-11-29T17:21:11.875Z,14.73
2018-11-29T17:23:39.399Z,13.37
2018-11-29T17:26:07.105Z,14.07
2018-11-29T17:28:34.559Z,14.27
2018-11-29T17:31:02.109Z,14.43
2018-11-29T17:33:29.738Z,13.93
2018-11-29T17:35:57.213Z,14.20
2018-11-29T17:38:24.672Z,13.90
2018-11-29T17:40:52.221Z,14.47
2018-11-29T17:43:19.809Z,13.63
2018-11-29T17:45:47.635Z,13.43
2018-11-29T17:48:15.113Z,13.60
2018-11-29T17:50:43.924Z,13.90
2018-11-29T17:53:11.415Z,14.93
2018-11-29T17:55:39.017Z,13.93
2018-11-29T17:58:09.250Z,12.23
2018-11-29T18:00:36.869Z,14.43
2018-11-29T18:03:05.572Z,13.50
2018-11-29T18:05:39.740Z,13.23
2018-11-29T18:08:07.272Z,15.10
2018-11-29T18:10:36.860Z,12.60
2018-11-29T18:13:23.304Z,13.03
2018-11-29T18:15:50.992Z,15.17
2018-11-29T18:18:18.447Z,13.73
2018-11-29T18:20:46.038Z,12.47
2018-11-29T18:23:13.469Z,13.17
2018-11-29T18:25:40.903Z,12.30
2018-11-29T18:28:09.272Z,12.67
2018-11-29T18:30:36.767Z,13.47
2018-11-29T18:33:04.836Z,14.03
2018-11-29T18:35:32.364Z,14.33
2018-11-29T18:37:59.829Z,13.10
2018-11-29T18:40:27.381Z,13.60
2018-11-29T18:42:56.294Z,14.80
2018-11-29T18:45:24.036Z,13.03
2018-11-29T18:47:52.288Z,12.40
2018-11-29T18:50:21.936Z,13.27
2018-11-29T18:52:49.653Z,12.00
2018-11-29T18:55:17.641Z,12.30
2018-11-29T18:57:45.232Z,13.83
2018-11-29T19:00:43.500Z,12.60
2018-11-29T19:03:11.057Z,15.47
2018-11-29T19:05:38.506Z,13.13
2018-11-29T19:08:07.570Z,14.60
2018-11-29T19:10:35.318Z,13.47
2018-11-29T19:13:04.563Z,12.57
2018-11-29T19:15:32.133Z,12.70
2018-11-29T19:17:59.652Z,13.03
2018-11-29T19:20:27.245Z,13.60
2018-11-29T19:22:55.049Z,13.83
2018-11-29T19:25:22.595Z,12.63
2018-11-29T19:27:50.057Z,13.73
2018-11-29T19:30:26.540Z,12.93
2018-11-29T19:32:58.272Z,12.43
2018-11-29T19:35:25.946Z,13.60
2018-11-29T19:37:53.254Z,12.23
2018-11-29T19:40:20.830Z,12.03
2018-11-29T19:42:48.332Z,12.60
2018-11-29T19:45:16.001Z,13.20
2018-11-29T19:47:43.509Z,13.17
2018-11-29T19:50:17.270Z,11.67
2018-11-29T19:52:47.334Z,12.93
2018-11-29T19:55:16.750Z,11.97
2018-11-29T19:57:44.549Z,12.70
2018-11-29T20:00:13.019Z,12.47
2018-11-29T20:02:41.379Z,11.23
2018-11-29T20:05:10.232Z,12.27
2018-11-29T20:07:37.738Z,12.20
2018-11-29T20:10:08.069Z,11.50
2018-11-29T20:12:35.649Z,11.77
2018-11-29T20:15:03.244Z,12.07
2018-11-29T20:17:30.805Z,11.03
2018-11-29T20:19:58.649Z,11.53
2018-11-29T20:22:26.269Z,12.03
2018-11-29T20:24:53.718Z,12.17
2018-11-29T20:27:21.423Z,11.67
2018-11-29T20:29:48.922Z,12.60
2018-11-29T20:32:16.383Z,12.40
2018-11-29T20:34:44.186Z,12.47
2018-11-29T20:37:11.669Z,12.87
2018-11-29T20:39:39.135Z,11.60
2018-11-29T20:42:06.681Z,12.80
2018-11-29T20:44:34.281Z,11.93
2018-11-29T20:47:01.739Z,11.80
2018-11-29T20:49:29.197Z,10.17
2018-11-29T20:51:56.736Z,11.23
2018-11-29T20:54:24.321Z,11.33
2018-11-29T20:56:51.895Z,11.80
2018-11-29T20:59:19.377Z,11.53
2018-11-29T21:01:46.915Z,11.23
2018-11-29T21:04:14.355Z,14.37
2018-11-29T21:06:41.837Z,12.20
2018-11-29T21:09:11.417Z,12.43
2018-11-29T21:11:39.003Z,11.87
2018-11-29T21:14:06.848Z,10.83
2018-11-29T21:16:34.477Z,10.30
2018-11-29T21:19:02.102Z,12.17
2018-11-29T21:21:30.600Z,11.20
2018-11-29T21:23:57.140Z,11.00
2018-11-29T21:26:24.747Z,11.17
2018-11-29T21:28:52.259Z,12.93
2018-11-29T21:34:01.907Z,10.90
2018-11-29T21:36:29.353Z,12.87
2018-11-29T21:38:56.821Z,11.17
2018-11-29T21:41:24.351Z,11.80
2018-11-29T21:43:51.831Z,11.50
2018-11-29T21:46:19.359Z,10.67
2018-11-29T21:48:46.877Z,10.80
2018-11-29T21:51:14.351Z,9.93
2018-11-29T21:53:41.777Z,10.40
2018-11-29T21:56:09.449Z,10.40
2018-11-29T21:58:36.897Z,12.00
2018-11-29T22:01:04.373Z,10.53
2018-11-29T22:03:31.896Z,11.53
2018-11-29T22:05:59.396Z,11.53
2018-11-29T22:08:26.817Z,11.03
2018-11-29T22:10:54.470Z,11.30
2018-11-29T22:13:22.229Z,11.10
2018-11-29T22:15:49.741Z,10.97
2018-11-29T22:18:20.349Z,11.20
2018-11-29T22:20:49.609Z,11.80
2018-11-29T22:23:17.025Z,11.70
2018-11-29T22:25:44.639Z,12.80
2018-11-29T22:28:12.065Z,11.97
2018-11-29T22:30:39.600Z,11.33
2018-11-29T22:33:07.228Z,11.87
2018-11-29T22:35:34.672Z,11.70
2018-11-29T22:38:02.092Z,12.20
2018-11-29T22:40:29.651Z,10.90
2018-11-29T22:42:57.103Z,11.47
2018-11-29T22:45:24.515Z,11.90
2018-11-29T22:47:52.049Z,10.77
2018-11-29T22:50:19.573Z,10.70
2018-11-29T22:52:47.065Z,11.57
2018-11-29T22:55:14.553Z,13.17
2018-11-29T22:57:41.990Z,11.37
2018-11-29T23:00:12.522Z,12.60
2018-11-29T23:02:40.078Z,12.10
2018-11-29T23:05:08.548Z,11.50
2018-11-29T23:07:36.026Z,11.60
2018-11-29T23:10:04.316Z,12.70
2018-11-29T23:12:31.860Z,11.47
2018-11-29T23:14:59.292Z,12.90
2018-11-29T23:17:26.727Z,13.70
2018-11-29T23:19:54.304Z,12.47
2018-11-29T23:22:21.704Z,12.97
2018-11-29T23:24:49.324Z,10.70
2018-11-29T23:27:16.785Z,12.00
2018-11-29T23:29:44.249Z,11.53
2018-11-29T23:32:11.855Z,11.97
2018-11-29T23:34:39.257Z,11.27
2018-11-29T23:37:06.662Z,11.50
2018-11-29T23:39:34.208Z,12.53
2018-11-29T23:42:01.765Z,11.50
2018-11-29T23:44:29.172Z,12.23
2018-11-29T23:46:56.753Z,12.23
2018-11-29T23:49:24.343Z,11.87
2018-11-29T23:51:51.779Z,12.40
2018-11-29T23:54:19.269Z,12.70
2018-11-29T23:56:46.777Z,12.60
2018-11-29T23:59:14.194Z,13.30
